createdAt,value
2022-09-20T00:00:52.194Z,97.75
2022-09-20T00:03:18.444Z,97.85
2022-09-20T00:05:44.617Z,97.68
2022-09-20T00:08:10.768Z,97.80
2022-09-20T00:10:36.938Z,97.83
2022-09-20T00:13:03.142Z,97.77
2022-09-20T00:15:29.381Z,97.81
2022-09-20T00:17:55.943Z,97.94
2022-09-20T00:20:22.060Z,97.75
2022-09-20T00:22:48.182Z,97.76
2022-09-20T00:25:14.298Z,97.81
2022-09-20T00:27:40.385Z,97.42
2022-09-20T00:30:06.475Z,97.78
2022-09-20T00:32:32.586Z,97.64
2022-09-20T00:34:58.687Z,97.49
2022-09-20T00:37:24.812Z,97.40
2022-09-20T00:39:50.935Z,97.53
2022-09-20T00:42:17.032Z,97.77
2022-09-20T00:44:43.138Z,97.70
2022-09-20T00:47:09.254Z,97.55
2022-09-20T00:49:35.348Z,97.68
2022-09-20T00:52:01.472Z,97.62
2022-09-20T00:54:27.586Z,97.57
2022-09-20T00:56:53.701Z,97.50
2022-09-20T00:59:19.785Z,97.74
2022-09-20T01:01:45.904Z,97.59
2022-09-20T01:04:12.006Z,97.43
2022-09-20T01:06:38.084Z,97.46
2022-09-20T01:09:04.231Z,97.64
2022-09-20T01:11:30.320Z,97.42
2022-09-20T01:13:56.424Z,97.46
2022-09-20T01:16:22.609Z,97.59
2022-09-20T01:18:48.708Z,97.49
2022-09-20T01:21:14.814Z,97.57
2022-09-20T01:23:40.924Z,97.42
2022-09-20T01:26:07.021Z,97.56
2022-09-20T01:28:33.119Z,97.37
2022-09-20T01:30:59.236Z,97.34
2022-09-20T01:33:25.320Z,97.54
2022-09-20T01:35:51.410Z,97.47
2022-09-20T01:38:17.533Z,97.38
2022-09-20T01:40:43.677Z,97.46
2022-09-20T01:43:09.793Z,97.49
2022-09-20T01:45:35.938Z,97.48
2022-09-20T01:48:02.046Z,97.61
2022-09-20T01:50:28.142Z,97.51
2022-09-20T01:52:54.244Z,97.54
2022-09-20T01:55:20.322Z,97.47
2022-09-20T01:57:46.420Z,97.41
2022-09-20T02:00:12.534Z,97.51
2022-09-20T02:02:38.676Z,97.38
2022-09-20T02:05:04.868Z,97.28
2022-09-20T02:07:31.011Z,97.41
2022-09-20T02:09:57.118Z,97.51
2022-09-20T02:12:23.224Z,97.26
2022-09-20T02:14:49.343Z,97.48
2022-09-20T02:17:15.454Z,97.29
2022-09-20T02:19:41.600Z,97.36
2022-09-20T02:22:08.193Z,97.15
2022-09-20T02:24:34.288Z,97.29
2022-09-20T02:27:00.401Z,97.30
2022-09-20T02:29:27.023Z,97.30
2022-09-20T02:31:53.139Z,97.19
2022-09-20T02:34:19.279Z,97.12
2022-09-20T02:36:45.392Z,97.13
2022-09-20T02:39:11.485Z,96.98
2022-09-20T02:41:37.572Z,97.08
2022-09-20T02:44:03.671Z,97.08
2022-09-20T02:46:29.780Z,96.96
2022-09-20T02:48:55.882Z,96.75
2022-09-20T02:51:21.994Z,97.01
2022-09-20T02:53:48.077Z,96.62
2022-09-20T02:56:14.162Z,96.52
2022-09-20T02:58:40.280Z,96.54
2022-09-20T03:01:06.441Z,96.45
2022-09-20T03:03:32.553Z,96.31
2022-09-20T03:05:58.707Z,96.21
2022-09-20T03:08:24.802Z,96.03
2022-09-20T03:10:50.902Z,96.08
2022-09-20T03:13:17.004Z,95.95
2022-09-20T03:15:43.093Z,95.89
2022-09-20T03:18:09.198Z,95.81
2022-09-20T03:20:35.332Z,95.78
2022-09-20T03:23:01.420Z,96.11
2022-09-20T03:25:27.551Z,95.85
2022-09-20T03:27:54.011Z,95.64
2022-09-20T03:30:20.105Z,95.75
2022-09-20T03:32:46.206Z,95.27
2022-09-20T03:35:12.313Z,95.29
2022-09-20T03:37:38.414Z,95.39
2022-09-20T03:40:04.620Z,95.43
2022-09-20T03:42:30.815Z,95.42
2022-09-20T03:44:56.925Z,95.42
2022-09-20T03:47:23.061Z,95.32
2022-09-20T03:49:49.183Z,95.22
2022-09-20T03:52:15.311Z,95.22
2022-09-20T03:54:41.397Z,94.99
2022-09-20T03:57:07.515Z,95.26
2022-09-20T03:59:33.600Z,95.21
2022-09-20T04:01:59.723Z,95.13
2022-09-20T04:04:25.860Z,95.05
2022-09-20T04:06:51.953Z,95.05
2022-09-20T04:09:18.045Z,95.13
2022-09-20T04:11:44.161Z,94.97
2022-09-20T04:14:11.515Z,95.13
2022-09-20T04:16:37.878Z,94.90
2022-09-20T04:19:04.822Z,94.95
2022-09-20T04:21:30.977Z,94.47
2022-09-20T04:23:57.098Z,94.80
2022-09-20T04:26:23.191Z,94.79
2022-09-20T04:28:49.285Z,94.59
2022-09-20T04:31:15.422Z,94.55
2022-09-20T04:33:41.553Z,94.65
2022-09-20T04:36:07.638Z,94.62
2022-09-20T04:38:33.726Z,94.86
2022-09-20T04:40:59.836Z,94.67
2022-09-20T04:43:25.940Z,94.74
2022-09-20T04:45:52.090Z,94.65
2022-09-20T04:48:18.232Z,94.79
2022-09-20T04:50:44.341Z,94.80
2022-09-20T04:53:10.431Z,94.50
2022-09-20T04:55:36.547Z,94.63
2022-09-20T04:58:02.644Z,94.71
2022-09-20T05:00:28.732Z,94.77
2022-09-20T05:02:54.843Z,94.63
2022-09-20T05:05:20.940Z,94.76
2022-09-20T05:07:47.017Z,94.54
2022-09-20T05:10:13.125Z,94.67
2022-09-20T05:12:39.219Z,94.75
2022-09-20T05:15:05.329Z,94.39
2022-09-20T05:17:31.438Z,94.44
2022-09-20T05:19:57.530Z,94.34
2022-09-20T05:22:23.619Z,94.49
2022-09-20T05:24:49.738Z,94.40
2022-09-20T05:27:15.825Z,94.39
2022-09-20T05:29:41.914Z,94.32
2022-09-20T05:32:08.836Z,94.31
2022-09-20T05:34:34.978Z,94.23
2022-09-20T05:37:01.086Z,94.07
2022-09-20T05:39:27.206Z,94.07
2022-09-20T05:41:53.288Z,93.94
2022-09-20T05:44:19.374Z,93.83
2022-09-20T05:46:45.517Z,93.86
2022-09-20T05:49:11.605Z,93.87
2022-09-20T05:51:37.683Z,93.81
2022-09-20T05:54:03.833Z,93.75
2022-09-20T05:56:29.925Z,93.41
2022-09-20T05:58:56.051Z,93.46
2022-09-20T06:01:22.202Z,93.47
2022-09-20T06:03:48.377Z,93.50
2022-09-20T06:06:14.504Z,93.35
2022-09-20T06:08:40.638Z,93.30
2022-09-20T06:11:06.793Z,93.24
2022-09-20T06:13:32.881Z,93.28
2022-09-20T06:15:59.055Z,93.13
2022-09-20T06:18:25.169Z,93.10
2022-09-20T06:20:51.366Z,93.03
2022-09-20T06:23:17.478Z,92.89
2022-09-20T06:25:43.583Z,92.97
2022-09-20T06:28:09.669Z,92.80
2022-09-20T06:30:35.819Z,92.84
2022-09-20T06:33:01.926Z,92.59
2022-09-20T06:35:28.010Z,92.54
2022-09-20T06:37:54.394Z,92.47
2022-09-20T06:40:20.550Z,92.24
2022-09-20T06:42:46.666Z,92.28
2022-09-20T06:45:12.773Z,92.12
2022-09-20T06:47:39.035Z,91.78
2022-09-20T06:50:05.140Z,91.90
2022-09-20T06:52:31.241Z,91.58
2022-09-20T06:54:57.331Z,91.97
2022-09-20T06:57:23.427Z,91.40
2022-09-20T06:59:49.580Z,91.39
2022-09-20T07:02:15.697Z,91.38
2022-09-20T07:04:41.823Z,91.27
2022-09-20T07:07:09.630Z,91.11
2022-09-20T07:09:35.783Z,90.84
2022-09-20T07:12:01.877Z,90.80
2022-09-20T07:14:27.992Z,90.96
2022-09-20T07:16:54.142Z,90.75
2022-09-20T07:19:20.256Z,90.77
2022-09-20T07:21:46.372Z,90.57
2022-09-20T07:24:12.465Z,90.35
2022-09-20T07:26:38.555Z,90.31
2022-09-20T07:29:04.760Z,90.05
2022-09-20T07:31:30.918Z,90.21
2022-09-20T07:33:57.044Z,90.02
2022-09-20T07:36:23.161Z,89.97
2022-09-20T07:38:49.247Z,89.87
2022-09-20T07:41:15.329Z,89.62
2022-09-20T07:43:41.430Z,89.59
2022-09-20T07:46:07.588Z,89.68
2022-09-20T07:48:33.712Z,89.55
2022-09-20T07:50:59.817Z,89.35
2022-09-20T07:53:25.962Z,89.43
2022-09-20T07:55:52.053Z,89.32
2022-09-20T07:58:18.180Z,89.07
2022-09-20T08:00:44.289Z,89.03
2022-09-20T08:03:10.546Z,88.95
2022-09-20T08:05:36.690Z,88.92
2022-09-20T08:08:02.780Z,89.05
2022-09-20T08:10:28.869Z,88.64
2022-09-20T08:15:41.076Z,88.51
2022-09-20T08:18:07.185Z,88.50
2022-09-20T08:20:33.357Z,88.64
2022-09-20T08:23:22.038Z,88.37
2022-09-20T08:25:45.602Z,88.49
2022-09-20T08:28:11.820Z,88.29
2022-09-20T08:30:37.908Z,88.19
2022-09-20T08:33:04.021Z,88.52
2022-09-20T08:35:30.125Z,88.26
2022-09-20T08:37:56.393Z,88.28
2022-09-20T08:40:23.114Z,87.95
2022-09-20T08:42:49.216Z,88.09
2022-09-20T08:45:22.260Z,87.61
2022-09-20T08:47:48.806Z,87.46
2022-09-20T08:50:17.633Z,87.27
2022-09-20T08:52:44.149Z,87.23
2022-09-20T08:55:10.346Z,86.73
2022-09-20T08:57:36.518Z,86.28
2022-09-20T09:00:02.665Z,86.13
2022-09-20T09:02:28.819Z,86.14
2022-09-20T09:04:55.009Z,85.86
2022-09-20T09:07:21.096Z,85.47
2022-09-20T09:09:47.212Z,85.02
2022-09-20T09:12:13.309Z,84.84
2022-09-20T09:14:39.408Z,84.62
2022-09-20T09:17:05.599Z,84.46
2022-09-20T09:19:34.699Z,83.79
2022-09-20T09:22:00.790Z,83.79
2022-09-20T09:24:27.044Z,83.64
2022-09-20T09:26:53.168Z,83.23
2022-09-20T09:29:19.279Z,82.84
2022-09-20T09:31:45.507Z,81.93
2022-09-20T09:34:11.639Z,81.91
2022-09-20T09:36:37.748Z,81.48
2022-09-20T09:39:03.891Z,81.61
2022-09-20T09:41:29.984Z,81.50
2022-09-20T09:43:56.167Z,81.31
2022-09-20T09:46:22.413Z,81.06
2022-09-20T09:48:48.559Z,81.07
2022-09-20T09:51:14.657Z,80.41
2022-09-20T09:53:40.761Z,80.03
2022-09-20T09:56:10.834Z,79.87
2022-09-20T09:58:39.502Z,79.53
2022-09-20T10:01:05.675Z,78.87
2022-09-20T10:03:31.817Z,78.93
2022-09-20T10:05:57.924Z,78.34
2022-09-20T10:08:24.020Z,77.91
2022-09-20T10:10:50.105Z,77.38
2022-09-20T10:13:16.220Z,77.22
2022-09-20T10:15:42.340Z,76.73
2022-09-20T10:18:08.680Z,76.55
2022-09-20T10:20:34.826Z,75.79
2022-09-20T10:23:34.461Z,75.05
2022-09-20T10:25:47.017Z,74.87
2022-09-20T10:28:13.128Z,74.22
2022-09-20T10:30:39.240Z,73.74
2022-09-20T10:33:05.366Z,73.61
2022-09-20T10:35:31.464Z,73.37
2022-09-20T10:37:57.583Z,72.88
2022-09-20T10:40:23.733Z,72.60
2022-09-20T10:42:49.921Z,72.31
2022-09-20T10:45:29.839Z,71.80
2022-09-20T10:48:02.137Z,71.67
2022-09-20T10:50:28.246Z,71.60
2022-09-20T10:52:54.350Z,71.19
2022-09-20T10:55:20.750Z,70.73
2022-09-20T10:57:47.094Z,70.55
2022-09-20T11:00:13.236Z,70.45
2022-09-20T11:02:39.455Z,70.02
2022-09-20T11:05:05.598Z,68.54
2022-09-20T11:07:32.731Z,68.26
2022-09-20T11:09:58.934Z,67.59
2022-09-20T11:12:25.044Z,67.34
2022-09-20T11:14:51.129Z,67.17
2022-09-20T11:17:17.258Z,66.56
2022-09-20T11:19:43.405Z,65.98
2022-09-20T11:22:09.526Z,65.07
2022-09-20T11:24:36.147Z,64.96
2022-09-20T11:27:02.238Z,64.80
2022-09-20T11:29:29.782Z,64.68
2022-09-20T11:31:55.992Z,64.53
2022-09-20T11:34:22.171Z,64.50
2022-09-20T11:36:48.275Z,64.03
2022-09-20T11:39:14.396Z,63.80
2022-09-20T11:41:40.489Z,64.11
2022-09-20T11:44:06.580Z,64.02
2022-09-20T11:46:32.740Z,63.58
2022-09-20T11:48:58.849Z,63.54
2022-09-20T11:51:24.953Z,63.08
2022-09-20T11:53:51.073Z,62.63
2022-09-20T11:56:17.158Z,62.28
2022-09-20T11:58:43.256Z,62.02
2022-09-20T12:01:09.409Z,62.44
2022-09-20T12:03:35.565Z,62.26
2022-09-20T12:06:01.698Z,62.32
2022-09-20T12:08:27.817Z,62.63
2022-09-20T12:10:53.907Z,61.32
2022-09-20T12:13:19.996Z,61.11
2022-09-20T12:15:46.097Z,61.10
2022-09-20T12:18:12.237Z,61.33
2022-09-20T12:20:38.361Z,61.28
2022-09-20T12:23:04.464Z,61.38
2022-09-20T12:25:30.576Z,61.28
2022-09-20T12:27:56.715Z,61.24
2022-09-20T12:30:22.890Z,60.69
2022-09-20T12:32:48.991Z,60.57
2022-09-20T12:35:15.108Z,60.44
2022-09-20T12:37:41.220Z,60.77
2022-09-20T12:40:07.561Z,60.77
2022-09-20T12:42:33.788Z,59.57
2022-09-20T12:44:59.976Z,59.91
2022-09-20T12:47:26.069Z,60.22
2022-09-20T12:49:52.164Z,60.25
2022-09-20T12:52:18.291Z,60.25
2022-09-20T12:54:44.578Z,59.98
2022-09-20T12:57:10.666Z,59.95
2022-09-20T12:59:36.790Z,60.06
2022-09-20T13:02:02.912Z,59.82
2022-09-20T13:04:29.675Z,59.77
2022-09-20T13:06:56.255Z,59.82
2022-09-20T13:09:22.379Z,59.66
2022-09-20T13:11:48.504Z,59.69
2022-09-20T13:14:14.626Z,59.60
2022-09-20T13:16:40.802Z,59.76
2022-09-20T13:19:07.121Z,59.31
2022-09-20T13:21:33.461Z,59.19
2022-09-20T13:23:59.577Z,58.90
2022-09-20T13:26:25.675Z,58.70
2022-09-20T13:28:51.794Z,58.31
2022-09-20T13:31:17.926Z,58.15
2022-09-20T13:33:44.058Z,58.11
2022-09-20T13:36:10.200Z,58.17
2022-09-20T13:38:36.300Z,58.44
2022-09-20T13:41:02.398Z,58.64
2022-09-20T13:43:28.516Z,58.78
2022-09-20T13:45:54.658Z,58.80
2022-09-20T13:48:20.818Z,59.05
2022-09-20T13:50:51.390Z,59.18
2022-09-20T13:53:39.349Z,59.38
2022-09-20T13:56:05.776Z,59.09
2022-09-20T13:58:31.900Z,59.37
2022-09-20T14:00:58.062Z,59.47
2022-09-20T14:03:24.273Z,59.65
2022-09-20T14:05:50.367Z,59.36
2022-09-20T14:08:16.504Z,59.24
2022-09-20T14:10:42.605Z,59.14
2022-09-20T14:13:08.695Z,59.05
2022-09-20T14:15:34.825Z,59.04
2022-09-20T14:18:00.929Z,59.05
2022-09-20T14:20:27.118Z,59.03
2022-09-20T14:22:56.110Z,58.90
2022-09-20T14:25:25.131Z,58.71
2022-09-20T14:27:51.227Z,58.55
2022-09-20T14:30:17.307Z,58.24
2022-09-20T14:32:43.412Z,57.65
2022-09-20T14:35:09.681Z,57.28
2022-09-20T14:37:35.839Z,56.98
2022-09-20T14:40:02.088Z,56.55
2022-09-20T14:42:28.275Z,56.89
2022-09-20T14:44:54.363Z,56.84
2022-09-20T14:47:20.465Z,56.61
2022-09-20T14:49:46.566Z,56.44
2022-09-20T14:52:12.652Z,56.31
2022-09-20T14:54:38.792Z,55.83
2022-09-20T14:57:04.895Z,55.05
2022-09-20T14:59:30.996Z,54.90
2022-09-20T15:01:57.110Z,54.36
2022-09-20T15:04:23.224Z,53.72
2022-09-20T15:06:49.304Z,53.43
2022-09-20T15:09:15.714Z,53.00
2022-09-20T15:11:41.815Z,52.81
2022-09-20T15:14:07.900Z,51.53
2022-09-20T15:16:34.055Z,51.12
2022-09-20T15:19:00.194Z,51.52
2022-09-20T15:21:26.285Z,52.07
2022-09-20T15:23:52.393Z,52.27
2022-09-20T15:26:18.486Z,52.66
2022-09-20T15:28:44.713Z,52.84
2022-09-20T15:31:10.896Z,50.97
2022-09-20T15:33:37.034Z,50.15
2022-09-20T15:36:03.135Z,48.86
2022-09-20T15:38:29.250Z,47.19
2022-09-20T15:40:55.338Z,46.31
2022-09-20T15:43:21.421Z,45.31
2022-09-20T15:45:47.566Z,44.75
2022-09-20T15:48:13.680Z,43.86
2022-09-20T15:50:39.765Z,43.96
2022-09-20T15:53:05.892Z,43.87
2022-09-20T15:55:31.990Z,44.10
2022-09-20T15:57:58.112Z,44.70
2022-09-20T16:00:24.709Z,45.45
2022-09-20T16:02:50.798Z,45.15
2022-09-20T16:05:16.886Z,45.09
2022-09-20T16:07:43.007Z,45.09
2022-09-20T16:10:09.110Z,45.28
2022-09-20T16:12:35.199Z,45.51
2022-09-20T16:15:01.315Z,45.68
2022-09-20T16:17:27.407Z,45.98
2022-09-20T16:19:53.498Z,46.30
2022-09-20T16:22:19.597Z,46.58
2022-09-20T16:24:45.686Z,46.48
2022-09-20T16:27:11.779Z,46.69
2022-09-20T16:29:37.893Z,47.03
2022-09-20T16:32:03.994Z,47.30
2022-09-20T16:34:30.078Z,47.76
2022-09-20T16:36:56.180Z,47.83
2022-09-20T16:39:22.273Z,47.92
2022-09-20T16:41:48.383Z,47.88
2022-09-20T16:44:14.529Z,47.78
2022-09-20T16:46:40.632Z,47.95
2022-09-20T16:49:06.888Z,47.98
2022-09-20T16:51:33.054Z,47.98
2022-09-20T16:53:59.133Z,47.82
2022-09-20T16:56:25.250Z,48.24
2022-09-20T16:58:51.379Z,48.31
2022-09-20T17:01:17.563Z,48.84
2022-09-20T17:03:43.668Z,49.45
2022-09-20T17:06:09.772Z,49.67
2022-09-20T17:08:35.870Z,50.25
2022-09-20T17:11:01.964Z,50.56
2022-09-20T17:13:28.134Z,50.87
2022-09-20T17:15:54.226Z,51.45
2022-09-20T17:18:20.328Z,52.24
2022-09-20T17:20:46.437Z,53.14
2022-09-20T17:23:12.529Z,54.60
2022-09-20T17:25:38.627Z,56.05
2022-09-20T17:28:04.729Z,56.81
2022-09-20T17:30:30.822Z,57.96
2022-09-20T17:32:56.938Z,58.75
2022-09-20T17:35:23.031Z,59.33
2022-09-20T17:37:49.172Z,59.44
2022-09-20T17:40:15.300Z,60.09
2022-09-20T17:42:41.459Z,60.59
2022-09-20T17:45:07.658Z,60.69
2022-09-20T17:47:33.767Z,61.36
2022-09-20T17:49:59.913Z,61.57
2022-09-20T17:52:26.009Z,62.05
2022-09-20T17:54:52.197Z,62.80
2022-09-20T17:57:18.311Z,63.04
2022-09-20T17:59:44.414Z,63.09
2022-09-20T18:02:10.510Z,63.36
2022-09-20T18:04:37.093Z,63.25
2022-09-20T18:07:03.176Z,63.68
2022-09-20T18:09:29.269Z,63.98
2022-09-20T18:11:55.446Z,64.09
2022-09-20T18:14:21.568Z,64.26
2022-09-20T18:16:47.673Z,64.18
2022-09-20T18:19:14.322Z,64.89
2022-09-20T18:21:40.422Z,64.84
2022-09-20T18:24:06.515Z,65.00
2022-09-20T18:26:32.745Z,64.97
2022-09-20T18:28:59.246Z,65.19
2022-09-20T18:31:25.379Z,65.40
2022-09-20T18:33:51.604Z,65.22
2022-09-20T18:36:17.706Z,65.41
2022-09-20T18:38:43.799Z,65.46
2022-09-20T18:41:10.279Z,65.58
2022-09-20T18:43:36.357Z,65.92
2022-09-20T18:46:02.436Z,66.13
2022-09-20T18:48:28.547Z,66.07
2022-09-20T18:50:54.639Z,66.14
2022-09-20T18:53:20.726Z,66.22
2022-09-20T18:55:46.842Z,66.21
2022-09-20T18:58:12.942Z,66.51
2022-09-20T19:00:39.113Z,66.51
2022-09-20T19:03:10.027Z,66.60
2022-09-20T19:05:36.443Z,66.64
2022-09-20T19:08:02.526Z,66.88
2022-09-20T19:10:28.725Z,66.70
2022-09-20T19:12:54.813Z,66.77
2022-09-20T19:15:20.919Z,66.96
2022-09-20T19:17:47.036Z,66.77
2022-09-20T19:20:13.131Z,66.98
2022-09-20T19:22:39.265Z,67.08
2022-09-20T19:25:05.489Z,67.23
2022-09-20T19:27:31.605Z,67.08
2022-09-20T19:29:57.706Z,67.31
2022-09-20T19:32:23.814Z,67.34
2022-09-20T19:34:49.905Z,67.61
2022-09-20T19:37:16.012Z,68.09
2022-09-20T19:39:42.136Z,68.19
2022-09-20T19:42:08.278Z,68.41
2022-09-20T19:44:34.373Z,68.70
2022-09-20T19:47:01.928Z,68.80
2022-09-20T19:49:28.191Z,68.91
2022-09-20T19:51:54.290Z,69.06
2022-09-20T19:54:20.427Z,69.02
2022-09-20T19:56:46.549Z,69.27
2022-09-20T19:59:12.646Z,69.19
2022-09-20T20:01:38.805Z,69.23
2022-09-20T20:04:05.020Z,69.21
2022-09-20T20:06:31.191Z,69.51
2022-09-20T20:08:57.318Z,69.35
2022-09-20T20:11:23.408Z,69.76
2022-09-20T20:13:49.517Z,69.79
2022-09-20T20:16:15.694Z,69.96
2022-09-20T20:18:41.813Z,70.01
2022-09-20T20:21:07.907Z,70.00
2022-09-20T20:23:34.291Z,70.08
2022-09-20T20:26:00.381Z,69.93
2022-09-20T20:28:26.476Z,69.84
2022-09-20T20:30:55.582Z,69.77
2022-09-20T20:33:23.969Z,69.79
2022-09-20T20:35:50.056Z,70.05
2022-09-20T20:38:16.182Z,70.05
2022-09-20T20:40:42.273Z,70.23
2022-09-20T20:43:08.361Z,70.40
2022-09-20T20:45:34.480Z,70.50
2022-09-20T20:48:00.579Z,70.56
2022-09-20T20:50:26.664Z,70.71
2022-09-20T20:52:52.786Z,70.93
2022-09-20T20:55:18.876Z,70.98
2022-09-20T20:57:44.970Z,70.97
2022-09-20T21:00:11.088Z,71.14
2022-09-20T21:02:37.217Z,71.27
2022-09-20T21:05:03.360Z,71.49
2022-09-20T21:07:29.479Z,71.61
2022-09-20T21:09:55.584Z,71.84
2022-09-20T21:12:21.682Z,71.77
2022-09-20T21:14:48.205Z,71.90
2022-09-20T21:17:14.310Z,71.89
2022-09-20T21:19:40.406Z,72.10
2022-09-20T21:22:06.511Z,72.06
2022-09-20T21:24:32.592Z,72.22
2022-09-20T21:26:58.677Z,72.43
2022-09-20T21:29:24.830Z,72.31
2022-09-20T21:31:50.912Z,72.45
2022-09-20T21:34:17.007Z,72.68
2022-09-20T21:36:43.122Z,72.68
2022-09-20T21:39:09.244Z,72.73
2022-09-20T21:41:35.480Z,73.00
2022-09-20T21:44:01.604Z,72.93
2022-09-20T21:46:27.767Z,73.27
2022-09-20T21:48:53.962Z,73.24
2022-09-20T21:51:20.123Z,73.28
2022-09-20T21:53:46.220Z,73.59
2022-09-20T21:56:12.297Z,73.58
2022-09-20T21:58:38.410Z,73.51
2022-09-20T22:01:04.542Z,73.36
2022-09-20T22:03:30.661Z,73.49
2022-09-20T22:05:56.771Z,73.86
2022-09-20T22:08:22.870Z,73.75
2022-09-20T22:10:48.968Z,73.81
2022-09-20T22:13:15.080Z,74.10
2022-09-20T22:15:41.182Z,74.02
2022-09-20T22:18:07.291Z,74.24
2022-09-20T22:20:33.446Z,74.31
2022-09-20T22:22:59.537Z,74.29
2022-09-20T22:25:25.653Z,74.26
2022-09-20T22:27:51.764Z,74.57
2022-09-20T22:30:17.867Z,74.58
2022-09-20T22:32:43.985Z,74.41
2022-09-20T22:35:10.117Z,74.60
2022-09-20T22:37:36.206Z,74.60
2022-09-20T22:40:02.356Z,74.67
2022-09-20T22:42:28.524Z,74.65
2022-09-20T22:44:54.694Z,74.55
2022-09-20T22:47:20.798Z,74.86
2022-09-20T22:49:46.941Z,74.74
2022-09-20T22:52:13.053Z,74.67
2022-09-20T22:54:39.140Z,74.90
2022-09-20T22:57:05.326Z,74.55
2022-09-20T22:59:31.425Z,75.05
2022-09-20T23:01:57.564Z,75.02
2022-09-20T23:04:23.675Z,75.02
2022-09-20T23:06:49.764Z,75.13
2022-09-20T23:09:15.859Z,75.01
2022-09-20T23:11:41.972Z,75.35
2022-09-20T23:14:08.071Z,75.09
2022-09-20T23:16:34.197Z,75.12
2022-09-20T23:19:00.363Z,75.32
2022-09-20T23:21:26.452Z,75.15
2022-09-20T23:23:52.556Z,75.41
2022-09-20T23:26:18.673Z,75.10
2022-09-20T23:28:44.768Z,75.13
2022-09-20T23:31:10.878Z,75.03
2022-09-20T23:33:37.514Z,75.25
2022-09-20T23:36:03.615Z,75.15
2022-09-20T23:38:29.709Z,75.02
2022-09-20T23:40:55.820Z,75.01
2022-09-20T23:43:21.909Z,75.01
2022-09-20T23:45:48.003Z,75.24
2022-09-20T23:48:14.144Z,75.38
2022-09-20T23:50:40.226Z,75.21
2022-09-20T23:53:06.313Z,75.03
2022-09-20T23:55:32.431Z,75.35
2022-09-20T23:57:58.532Z,75.36
